• Join FlightAware (Why Join?)
  • Login
  • US Flag 
03:32PM EST


 

Airport Tracker/Info


-or-


 

Live Flight TrackerFlight Track Log ✈ UPS1081 ✈ 05-Sep-2013 ✈ KEWR - KSDF

Flight Track Log - Related Links

Times and Time Zones

All times are in EDT time to prevent confusion due to time zone crossing. See the UPS1081 flight status page for this flight to view local times or setup timezone preferences in your user account.

Time Position Orientation Groundspeed Altitude Reporting Facility
EDT Latitude Longitude Course Direction KTS MPH feet Rate Location/Type
11:16PM 40.7050 -74.1600 114° Southeast 157 181 1,200  Level FlightAware
11:16PM 40.7100 -74.1530 47° Northeast 157 181 1,700 2,160 Climbing FlightAware
11:16PM 40.7210 -74.1380 46° Northeast 186 214 2,300 1,560 Climbing FlightAware
11:16PM 40.7297 -74.1285 40° Northeast 172 198 2,500 1,500 Climbing FlightAware ADS-B
11:16PM 40.7363 -74.1263 14° North 215 247 2,700 1,380 Climbing FlightAware ADS-B
11:16PM 40.7426 -74.1262 North 233 268 2,800 1,320 Climbing FlightAware ADS-B
11:16PM 40.7461 -74.1268 353° North 241 277 2,900 2,640 Climbing FlightAware ADS-B
11:17PM 40.7524 -74.1292 344° North 247 284 3,200 3,000 Climbing FlightAware ADS-B
11:17PM 40.7566 -74.1317 336° Northwest 249 287 3,400 3,420 Climbing FlightAware ADS-B
11:17PM 40.7596 -74.1339 331° Northwest 252 290 3,600 3,300 Climbing FlightAware ADS-B
11:17PM 40.7653 -74.1398 322° Northwest 256 295 3,900 3,240 Climbing FlightAware ADS-B
11:17PM 40.7691 -74.1453 312° West 258 297 4,200 3,720 Climbing FlightAware ADS-B
11:17PM 40.7714 -74.1494 307° West 259 298 4,400 4,260 Climbing FlightAware ADS-B
11:17PM 40.7737 -74.1547 300° West 263 303 4,700 4,260 Climbing FlightAware ADS-B
11:17PM 40.7754 -74.1598 294° West 264 304 4,900 3,420 Climbing FlightAware ADS-B
11:17PM 40.7768 -74.1657 287° West 266 306 5,100 3,300 Climbing FlightAware ADS-B
11:17PM 40.7779 -74.1729 281° West 268 308 5,400 3,720 Climbing FlightAware ADS-B
11:17PM 40.7781 -74.1783 273° West 270 311 5,600 4,260 Climbing FlightAware ADS-B
11:17PM 40.7779 -74.1851 268° West 270 311 5,900 4,200 Climbing FlightAware ADS-B
11:18PM 40.7758 -74.2108 264° West 269 310 7,000 3,300 Climbing FlightAware ADS-B
11:18PM 40.7727 -74.2434 263° West 269 310 7,900 3,120 Climbing FlightAware ADS-B
11:18PM 40.7701 -74.2703 263° West 270 311 8,900 2,760 Climbing FlightAware ADS-B
11:19PM 40.7664 -74.3151 264° West 270 311 9,900 1,680 Climbing FlightAware ADS-B
11:20PM 40.7563 -74.4341 264° West 305 351 11,400 1,620 Climbing FlightAware ADS-B
11:20PM 40.7494 -74.4594 250° West 372 428 11,900 2,400 Climbing FlightAware ADS-B
11:20PM 40.7270 -74.5290 247° West 393 452 13,200 2,400 Climbing FlightAware
11:21PM 40.7038 -74.5989 246° West 379 436 14,500 2,700 Climbing FlightAware ADS-B
11:22PM 40.6690 -74.7020 246° West 402 463 16,700 1,680 Climbing FlightAware
11:22PM 40.6410 -74.7850 246° West 398 458 16,900 960 Climbing FlightAware
11:23PM 40.6190 -74.8520 247° West 398 458 17,800 2,220 Climbing FlightAware
11:23PM 40.5930 -74.9280 246° West 402 463 19,400 2,400 Climbing FlightAware
11:24PM 40.5660 -75.0100 247° West 412 474 20,700 1,800 Climbing FlightAware
11:25PM 40.5380 -75.0950 247° West 429 494 21,600 1,620 Climbing FlightAware
11:25PM 40.5160 -75.1770 251° West 436 502 22,600 2,040 Climbing FlightAware
11:26PM 40.4900 -75.2730 250° West 438 504 24,000 1,980 Climbing FlightAware
11:26PM 40.4660 -75.3650 251° West 445 512 25,100 1,740 Climbing FlightAware
11:27PM 40.4460 -75.4420 251° West 450 518 26,000 1,620 Climbing FlightAware
11:27PM 40.4190 -75.5400 250° West 457 526 27,000 1,620 Climbing FlightAware
11:28PM 40.3960 -75.6280 251° West 457 526 28,000 1,980 Climbing FlightAware
11:29PM 40.3700 -75.7240 250° West 450 518 29,400 2,220 Climbing FlightAware
11:29PM 40.3470 -75.8080 250° West 441 507 30,600 2,100 Climbing FlightAware
11:30PM 40.3230 -75.8930 250° West 433 498 31,800 1,140 Climbing FlightAware
11:30PM 40.2980 -75.9860 251° West 437 503 32,000 120 Climbing FlightAware
11:31PM 40.2770 -76.0630 250° West 435 501 32,000  Level FlightAware
11:32PM 40.2500 -76.1590 250° West 433 498 32,000  Level FlightAware
11:32PM 40.2290 -76.2380 251° West 432 497 32,000  Level FlightAware
11:33PM 40.2040 -76.3260 250° West 430 495 32,000  Level FlightAware
11:33PM 40.1800 -76.4150 251° West 430 495 32,000  Level FlightAware
11:34PM 40.1570 -76.4970 250° West 430 495 32,000  Level FlightAware
11:34PM 40.1310 -76.5900 250° West 432 497 32,000  Level FlightAware
11:35PM 40.1090 -76.6670 250° West 433 498 32,000  Level FlightAware
11:36PM 40.0850 -76.7520 250° West 433 498 32,000  Level FlightAware
11:36PM 40.0600 -76.8430 250° West 432 497 32,000  Level FlightAware
11:37PM 40.0350 -76.9300 249° West 433 498 32,000  Level FlightAware
11:37PM 40.0080 -77.0260 250° West 432 497 32,000  Level FlightAware
11:38PM 39.9830 -77.1140 250° West 433 498 32,000  Level FlightAware
11:39PM 39.9580 -77.2000 249° West 434 499 32,000  Level FlightAware
11:39PM 39.9350 -77.2810 250° West 436 502 32,000  Level FlightAware
11:40PM 39.9090 -77.3700 249° West 437 503 32,000  Level FlightAware
11:40PM 39.8840 -77.4570 249° West 437 503 32,000  Level FlightAware
11:41PM 39.8570 -77.5470 249° West 438 504 32,000  Level FlightAware
11:42PM 39.8350 -77.6260 250° West 438 504 32,000  Level FlightAware
11:42PM 39.8100 -77.7090 249° West 439 505 32,000  Level FlightAware
11:43PM 39.7850 -77.7950 249° West 438 504 32,000  Level FlightAware
11:43PM 39.7590 -77.8830 249° West 439 505 32,000  Level FlightAware
11:44PM 39.7320 -77.9760 249° West 439 505 32,000  Level FlightAware
11:44PM 39.7070 -78.0590 249° West 439 505 32,000  Level FlightAware
11:45PM 39.6790 -78.1530 249° West 439 505 32,000  Level FlightAware
11:46PM 39.6560 -78.2300 249° West 440 506 32,000  Level FlightAware
11:46PM 39.6300 -78.3200 249° West 440 506 32,000  Level FlightAware
11:47PM 39.6030 -78.4080 248° West 441 507 32,000  Level FlightAware
11:47PM 39.5800 -78.4860 249° West 442 509 32,000  Level FlightAware
11:48PM 39.5470 -78.5940 248° West 442 509 32,000  Level FlightAware
11:49PM 39.5200 -78.6830 249° West 443 510 32,000  Level FlightAware
11:49PM 39.4930 -78.7720 249° West 444 511 32,000  Level FlightAware
11:50PM 39.4690 -78.8510 249° West 444 511 32,000  Level FlightAware
11:50PM 39.4410 -78.9440 249° West 446 513 32,000  Level FlightAware
11:51PM 39.4150 -79.0290 248° West 446 513 32,000  Level FlightAware
11:52PM 39.3860 -79.1210 248° West 446 513 32,000  Level FlightAware
11:52PM 39.3630 -79.1970 249° West 446 513 32,000  Level FlightAware
11:53PM 39.3350 -79.2880 248° West 446 513 32,000  Level FlightAware
11:53PM 39.3070 -79.3780 248° West 447 514 32,000  Level FlightAware
11:54PM 39.2830 -79.4560 248° West 447 514 32,000  Level FlightAware
11:54PM 39.2540 -79.5480 248° West 448 516 32,000  Level FlightAware
11:55PM 39.2270 -79.6350 248° West 448 516 32,000  Level FlightAware
11:56PM 39.2020 -79.7140 248° West 449 517 32,000  Level FlightAware
11:56PM 39.1740 -79.8020 248° West 449 517 32,000  Level FlightAware
11:57PM 39.1450 -79.8930 248° West 449 517 32,000  Level FlightAware
11:57PM 39.1210 -79.9680 248° West 449 517 32,000  Level FlightAware
11:58PM 39.0910 -80.0630 248° West 450 518 32,000  Level FlightAware
11:59PM 39.0630 -80.1510 248° West 450 518 32,000  Level FlightAware
11:59PM 39.0340 -80.2420 248° West 450 518 32,000  Level FlightAware
12:00AM 39.0110 -80.3110 247° West 450 518 32,000  Level FlightAware
12:00AM 38.9780 -80.4150 248° West 451 519 32,000  Level FlightAware
12:01AM 38.9500 -80.5020 248° West 451 519 32,000  Level FlightAware
12:02AM 38.9200 -80.5930 247° West 452 520 32,000  Level FlightAware
12:02AM 38.8950 -80.6710 248° West 453 521 32,000  Level FlightAware
12:03AM 38.8660 -80.7600 247° West 454 522 32,000  Level FlightAware
12:03AM 38.8360 -80.8500 247° West 455 524 32,000  Level FlightAware
12:04AM 38.8120 -80.9230 247° West 456 525 32,000  Level FlightAware
12:04AM 38.7800 -81.0200 247° West 458 527 32,000  Level FlightAware
12:05AM 38.7510 -81.1080 247° West 460 529 32,000  Level FlightAware
12:06AM 38.7230 -81.1940 247° West 461 531 32,000  Level FlightAware
12:06AM 38.6920 -81.2860 247° West 462 532 32,000  Level FlightAware
12:07AM 38.6660 -81.3670 248° West 463 533 32,000  Level FlightAware
12:07AM 38.6350 -81.4590 247° West 463 533 32,000  Level FlightAware
12:08AM 38.6030 -81.5520 246° West 464 534 32,000  Level FlightAware
12:08AM 38.5760 -81.6350 247° West 465 535 32,000  Level FlightAware
12:09AM 38.5450 -81.7250 246° West 466 536 32,000  Level FlightAware
12:10AM 38.5140 -81.8170 247° West 468 539 32,000  Level FlightAware
12:10AM 38.4830 -81.9070 246° West 469 540 32,000  Level FlightAware
12:11AM 38.4560 -81.9890 247° West 470 541 32,000  Level FlightAware
12:11AM 38.4280 -82.0710 246° West 471 542 32,000  Level FlightAware
12:12AM 38.3980 -82.1580 246° West 472 543 32,000  Level FlightAware
12:13AM 38.3660 -82.2500 246° West 472 543 32,000  Level FlightAware
12:13AM 38.3370 -82.3350 247° West 472 543 32,000  Level FlightAware
12:14AM 38.3050 -82.4280 246° West 473 544 32,000  Level FlightAware
12:14AM 38.2760 -82.5120 246° West 474 545 32,000  Level FlightAware
12:15AM 38.2440 -82.6040 246° West 474 545 32,000  Level FlightAware
12:15AM 38.2120 -82.6960 246° West 474 545 32,000  Level FlightAware
12:16AM 38.1840 -82.7740 245° Southwest 474 545 32,000  Level FlightAware
12:17AM 38.1520 -82.8670 246° West 474 545 32,000  Level FlightAware
12:17AM 38.1200 -82.9580 246° West 474 545 32,000  Level FlightAware
12:18AM 38.0945 -83.0299 246° West 475 547 32,000  Level FlightAware ADS-B
12:18AM 38.0550 -83.1420 246° West 473 544 32,000  Level FlightAware
12:19AM 38.0473 -83.1630 245° Southwest 474 545 32,000  Level FlightAware ADS-B
12:20AM 37.9930 -83.3170 246° West 473 544 32,000  Level FlightAware
12:20AM 37.9782 -83.3572 245° Southwest 473 544 32,000  Level FlightAware ADS-B
12:21AM 37.9290 -83.4940 246° West 466 536 32,000  Level FlightAware
12:21AM 37.9000 -83.5740 245° Southwest 464 534 32,000  Level FlightAware
12:22AM 37.8680 -83.6640 246° West 463 533 32,000  Level FlightAware
12:22AM 37.8370 -83.7500 245° Southwest 462 532 32,000  Level FlightAware
12:23AM 37.8080 -83.8290 245° Southwest 462 532 32,000 -120 Level FlightAware
12:24AM 37.7740 -83.9230 245° Southwest 464 534 31,900 -660 Descending FlightAware
12:24AM 37.7420 -84.0100 245° Southwest 462 532 31,200 -1,380 Descending FlightAware
12:25AM 37.7120 -84.0940 246° West 457 526 30,300 -1,920 Descending FlightAware
12:25AM 37.6800 -84.1800 245° Southwest 449 517 29,000 -2,580 Descending FlightAware
12:26AM 37.6530 -84.2550 246° West 449 517 27,400 -3,120 Descending FlightAware
12:27AM 37.6162 -84.3560 245° Southwest 446 513 25,200 -3,360 Descending FlightAware ADS-B
12:27AM 37.6031 -84.3969 248° West 445 512 24,100 -3,600 Descending FlightAware ADS-B
12:28AM 37.5810 -84.5016 255° West 445 512 21,700 -3,420 Descending FlightAware ADS-B
12:28AM 37.5748 -84.5773 264° West 431 496 20,000 -3,360 Descending FlightAware ADS-B
12:29AM 37.5752 -84.6356 271° West 428 493 18,700 -3,300 Descending FlightAware ADS-B
12:29AM 37.5825 -84.7145 277° West 412 474 17,000 -3,600 Descending FlightAware ADS-B
12:30AM 37.6100 -84.8350 286° West 383 441 13,500 -3,840 Descending FlightAware
12:30AM 37.6330 -84.8970 295° West 372 428 11,500 -2,580 Descending FlightAware
12:31AM 37.6660 -84.9650 302° West 360 414 10,600 -1,200 Descending FlightAware
12:32AM 37.7030 -85.0200 310° West 325 374 10,100 -780 Descending FlightAware
12:32AM 37.7220 -85.0470 312° West 309 356 9,900 -480 Descending FlightAware
12:32AM 37.7430 -85.0750 313° West 290 334 9,800 -720 Descending FlightAware
12:33AM 37.7610 -85.0980 315° West 279 321 9,400 -1,320 Descending FlightAware
12:33AM 37.7840 -85.1190 324° Northwest 275 316 8,900 -1,500 Descending FlightAware
12:33AM 37.7890 -85.1250 317° Northwest 277 319 8,700 -1,740 Descending FlightAware
12:33AM 37.7950 -85.1370 302° West 280 322 8,500 -1,500 Descending FlightAware
12:33AM 37.7990 -85.1490 293° West 282 325 8,300 -1,500 Descending FlightAware
12:34AM 37.8010 -85.1620 281° West 285 328 8,100 -1,560 Descending FlightAware
12:34AM 37.7980 -85.2010 264° West 286 329 7,500 -1,500 Descending FlightAware
12:34AM 37.7930 -85.2410 261° West 284 327 6,900 -1,500 Descending FlightAware
12:35AM 37.7900 -85.2730 263° West 280 322 6,400 -1,560 Descending FlightAware
12:35AM 37.7880 -85.2990 264° West 278 320 6,000 -1,620 Descending FlightAware
12:35AM 37.7850 -85.3270 262° West 280 322 5,500 -1,320 Descending FlightAware
12:36AM 37.7830 -85.3610 266° West 274 315 5,100 -1,140 Descending FlightAware
12:36AM 37.7800 -85.4010 265° West 270 311 4,600 -1,320 Descending FlightAware
12:36AM 37.7780 -85.4330 265° West 268 308 4,100 -1,080 Descending FlightAware
12:37AM 37.7750 -85.4690 264° West 258 297 3,800 -600 Descending FlightAware
12:37AM 37.7830 -85.5050 286° West 237 273 3,600 -600 Descending FlightAware
12:37AM 37.7870 -85.5100 315° West 233 268 3,500 -1,200 Descending FlightAware
12:38AM 37.8090 -85.5390 314° West 225 259 2,900 -960 Descending FlightAware
12:38AM 37.8180 -85.5500 316° Northwest 222 255 2,800 -180 Descending FlightAware
12:38AM 37.8340 -85.5710 314° West 222 255 2,800  Level FlightAware
12:39AM 37.8490 -85.5900 315° West 224 258 2,800  Level FlightAware
12:39AM 37.8630 -85.6080 315° West 225 259 2,800  Level FlightAware
12:39AM 37.8720 -85.6170 322° Northwest 225 259 2,800  Level FlightAware
12:40AM 37.8900 -85.6270 336° Northwest 223 257 2,800  Level FlightAware
12:40AM 37.9110 -85.6370 339° North 223 257 2,800  Level FlightAware
12:40AM 37.9290 -85.6440 343° North 222 255 2,800  Level FlightAware
12:41AM 37.9500 -85.6520 343° North 222 255 2,800  Level FlightAware
12:41AM 37.9740 -85.6590 347° North 223 257 2,800  Level FlightAware
12:41AM 37.9950 -85.6650 347° North 214 246 2,800  Level FlightAware
12:42AM 38.0140 -85.6720 344° North 198 228 2,800  Level FlightAware
12:42AM 38.0340 -85.6790 345° North 187 215 2,800 -480 Level FlightAware
12:42AM 38.0500 -85.6850 344° North 178 205 2,500 -900 Descending FlightAware
12:43AM 38.0650 -85.6900 345° North 166 191 2,200 -840 Descending FlightAware
12:43AM 38.0800 -85.6950 345° North 145 167 1,900 -780 Descending FlightAware
12:44AM 38.0970 -85.7010 344° North 134 154 1,600 -780 Descending FlightAware
12:44AM 38.1120 -85.7060 345° North 134 154 1,300 -720 Descending FlightAware
12:44AM 38.1240 -85.7100 345° North 135 155 1,100 -600 Descending FlightAware
12:45AM 38.1350 -85.7140 344° North 136 157 900 -720 Descending FlightAware
12:45AM 38.1490 -85.7180 347° North 136 157 600 -720 Descending FlightAware
12:45AM 38.1610 -85.7220 345° North 135 155 400 -600 Descending FlightAware
12:46AM 38.1790 -85.7290 343° North 70 81 -720 Descending FlightAware